Chambery, France

11:07 AM CET on December 03, 2016 (GMT +0100)
Aix-les-Bains | | Change Station

Elev 771 ft 45.64 °N, 5.88 °E | Updated 7 minutes ago

Mist
Mist
36 °F
Feels Like 28 °F
N
10
Wind Variable Wind from South

Today
High -- | Low -- °F
--% Chance of Precip.
Yesterday
High -- | Low -- °F
Precip. -- in
Pressure 30.12 in
Visibility 3.1 miles
Clouds
Windchill 28 °F
Dew Point 32 °F
Humidity 87%
Rainfall 0.00 in
Snow Depth Not available.
7:59 AM 4:53 PM
Waxing Crescent, 14% visible
METAR LFLB 031000Z AUTO 17009KT 5000 BR NCD 02/00 Q1020 BECMG 36012KT
Pressure 30.12 in
Visibility 3.1 miles
Clouds
Windchill 28 °F
Dew Point 32 °F
Humidity 87%
Rainfall 0.00 in
Snow Depth Not available.
7:59 AM 4:53 PM
Waxing Crescent, 14% visible
METAR LFLB 031000Z AUTO 17009KT 5000 BR NCD 02/00 Q1020 BECMG 36012KT

10-Day Weather Forecast

×

Almanac

Astronomy

Dec. 03, 2016 Rise Set
Actual Time
Civil Twilight
Nautical Twilight
Astronomical Twilight
Moon
Length of Visible Light
Length of Day
Tomorrow will be .
, % of the Moon is Illuminated

Today's Extremes

Country Highs Country Lows

Community

WunderPhotos

Upload Photos

1,955,434 photos uploaded!

WunderBlog® & News

Nearby

Air Quality

  Air Quality AQ Index Pollutant
Not available.

Snow Depth

Station Depth Elevation

Earthquake Activity

City Distance Mag. Time & Date
Minimum magnitude displayed is 2.5.

Coastal Water Temperatures

Place Temperature

Stations

Nearby Weather Stations

Station Location Temp. Windchill Dew Point Humidity Wind Precip. Elev Updated Type